Time;durP1;ratioP1;P1;durP2;ratioP2;P2;SDS_P1;SDS_P2;PMS_P1;PMS_P2;Temp;Humidity;BMP_temperature;BMP_pressure;BME280_temperature;BME280_humidity;BME280_pressure;Samples;Min_cycle;Max_cycle;Signal;HPM_P1;HPM_P2
2024/04/07 00:00:36;;;;;;;23.83;3.67;;;;;;;;;;6214992;23;20229;-93
2024/04/07 00:03:01;;;;;;;26.70;3.88;;;;;;;;;;6213819;23;20011;-94
2024/04/07 00:05:26;;;;;;;25.85;5.53;;;;;;;;;;6213425;23;19992;-93
2024/04/07 00:07:52;;;;;;;25.73;3.97;;;;;;;;;;6213434;23;20008;-93
2024/04/07 00:10:17;;;;;;;31.33;5.03;;;;;;;;;;6214271;23;20234;-93
2024/04/07 00:12:42;;;;;;;21.95;3.50;;;;;;;;;;6213629;23;20246;-93
2024/04/07 00:15:08;;;;;;;30.43;3.83;;;;;;;;;;6213313;23;20083;-94
2024/04/07 00:17:33;;;;;;;26.00;4.20;;;;;;;;;;6213439;23;20278;-92
2024/04/07 00:19:59;;;;;;;23.48;2.83;;;;;;;;;;6213578;23;20001;-92
2024/04/07 00:22:25;;;;;;;19.17;3.35;;;;;;;;;;6213195;23;20008;-92
2024/04/07 00:24:50;;;;;;;19.30;3.75;;;;;;;;;;6212629;23;20008;-93
2024/04/07 00:27:16;;;;;;;27.75;3.10;;;;;;;;;;6214882;23;20431;-93
2024/04/07 00:29:41;;;;;;;19.35;3.90;;;;;;;;;;6213181;23;20036;-93
2024/04/07 00:32:06;;;;;;;24.30;4.50;;;;;;;;;;6213286;23;20019;-93
2024/04/07 00:34:32;;;;;;;20.60;3.55;;;;;;;;;;6213928;23;20088;-92
2024/04/07 00:36:57;;;;;;;28.50;4.13;;;;;;;;;;6213353;23;20091;-93
2024/04/07 00:39:22;;;;;;;25.70;3.88;;;;;;;;;;6213310;23;20343;-94
2024/04/07 00:41:47;;;;;;;27.10;4.75;;;;;;;;;;6215154;23;20443;-94
2024/04/07 00:44:13;;;;;;;22.43;4.63;;;;;;;;;;6215330;23;20009;-93
2024/04/07 00:46:40;;;;;;;24.60;3.73;;;;;;;;;;6215185;23;20322;-92
2024/04/07 00:49:06;;;;;;;22.73;3.85;;;;;;;;;;6215751;23;20221;-93
2024/04/07 00:51:31;;;;;;;28.42;4.10;;;;;;;;;;6215481;23;20005;-95
2024/04/07 00:53:56;;;;;;;21.88;4.40;;;;;;;;;;6215694;23;20651;-93
2024/04/07 00:56:22;;;;;;;22.45;5.35;;;;;;;;;;6215159;23;20035;-93
2024/04/07 00:58:48;;;;;;;30.42;4.50;;;;;;;;;;6215739;23;20020;-93
2024/04/07 01:01:13;;;;;;;36.00;5.07;;;;;;;;;;6214491;23;20008;-93
2024/04/07 01:03:38;;;;;;;25.27;4.17;;;;;;;;;;6216119;23;20414;-94
2024/04/07 01:06:03;;;;;;;28.03;4.47;;;;;;;;;;6216075;23;20699;-93
2024/04/07 01:08:29;;;;;;;33.30;6.47;;;;;;;;;;6216340;23;20677;-94
2024/04/07 01:10:54;;;;;;;32.88;5.28;;;;;;;;;;6216791;23;20043;-94
2024/04/07 01:13:24;;;;;;;35.20;4.72;;;;;;;;;;6215065;23;19996;-94
2024/04/07 01:15:49;;;;;;;31.73;4.47;;;;;;;;;;6214956;23;20012;-94
2024/04/07 01:18:14;;;;;;;28.58;5.05;;;;;;;;;;6215182;23;20003;-93
2024/04/07 01:20:40;;;;;;;32.40;4.93;;;;;;;;;;6214922;23;20003;-94
2024/04/07 01:23:05;;;;;;;53.50;6.03;;;;;;;;;;6216634;23;20215;-93
2024/04/07 01:25:50;;;;;;;34.70;5.65;;;;;;;10.00;100.00;99280.28;5082546;28;20377;-92
2024/04/07 01:28:15;;;;;;;32.60;5.05;;;;;;;10.01;100.00;99268.22;5050213;28;20479;-93
2024/04/07 01:30:42;;;;;;;34.35;5.63;;;;;;;10.08;100.00;99277.97;5048968;28;20067;-93
2024/04/07 01:33:07;;;;;;;34.63;6.65;;;;;;;10.06;100.00;99277.25;5049175;28;20447;-94
2024/04/07 01:35:33;;;;;;;31.48;6.03;;;;;;;10.12;100.00;99288.03;5048953;28;20057;-93
2024/04/07 01:37:58;;;;;;;32.25;4.82;;;;;;;10.08;100.00;99287.47;5048787;28;20029;-92
2024/04/07 01:40:24;;;;;;;37.72;5.22;;;;;;;10.08;100.00;99285.69;5048355;28;20025;-93
2024/04/07 01:42:52;;;;;;;38.38;5.57;;;;;;;10.05;100.00;99285.94;5048625;28;20032;-93
2024/04/07 01:45:18;;;;;;;43.40;6.93;;;;;;;10.13;100.00;99313.72;5048109;28;20033;-93
2024/04/07 01:47:44;;;;;;;43.47;8.15;;;;;;;10.07;100.00;99306.41;5048323;28;20043;-94
2024/04/07 01:50:09;;;;;;;33.53;6.10;;;;;;;9.96;100.00;99290.94;5048252;28;20467;-93
2024/04/07 01:52:35;;;;;;;33.70;5.93;;;;;;;9.97;100.00;99308.03;5049462;28;20549;-93
2024/04/07 01:55:00;;;;;;;27.95;4.97;;;;;;;9.95;100.00;99304.75;5048293;28;20021;-94
2024/04/07 01:57:26;;;;;;;37.85;5.28;;;;;;;9.80;100.00;99301.53;5048674;28;20025;-94
2024/04/07 01:59:51;;;;;;;34.25;4.53;;;;;;;9.85;100.00;99318.31;5048594;28;20087;-93
2024/04/07 02:02:19;;;;;;;38.95;6.53;;;;;;;9.79;100.00;99292.16;5048803;28;20116;-94
2024/04/07 02:04:48;;;;;;;30.17;4.63;;;;;;;9.75;100.00;99314.75;5048928;28;20029;-94
2024/04/07 02:07:14;;;;;;;37.97;4.72;;;;;;;9.77;100.00;99318.03;5048282;28;20257;-94
2024/04/07 02:09:40;;;;;;;35.33;5.88;;;;;;;9.77;100.00;99322.38;5048538;28;20214;-94
2024/04/07 02:12:05;;;;;;;39.05;4.43;;;;;;;9.69;100.00;99306.66;5048517;28;20124;-94
2024/04/07 02:14:31;;;;;;;23.88;4.57;;;;;;;9.76;100.00;99329.28;5048671;28;20399;-93
2024/04/07 02:16:57;;;;;;;28.48;4.45;;;;;;;9.80;100.00;99333.28;5048537;28;20025;-94
2024/04/07 02:19:22;;;;;;;23.88;3.58;;;;;;;9.79;100.00;99336.78;5048088;28;20021;-94
2024/04/07 02:21:47;;;;;;;33.50;5.30;;;;;;;9.81;100.00;99337.50;5048253;28;20403;-93
2024/04/07 02:24:13;;;;;;;21.42;4.32;;;;;;;9.71;100.00;99335.72;5047602;28;20041;-94
2024/04/07 02:26:38;;;;;;;25.30;4.45;;;;;;;9.65;100.00;99337.75;5048097;28;20021;-94
2024/04/07 02:29:04;;;;;;;28.83;4.07;;;;;;;9.73;100.00;99339.81;5046698;28;20056;-94
2024/04/07 02:31:30;;;;;;;29.42;4.50;;;;;;;9.69;100.00;99335.81;5032543;28;20385;-94
2024/04/07 02:33:55;;;;;;;36.55;6.05;;;;;;;9.74;100.00;99333.72;5027976;28;20029;-94
2024/04/07 02:36:21;;;;;;;28.17;4.35;;;;;;;9.63;100.00;99328.50;5019004;28;20074;-94
2024/04/07 02:38:47;;;;;;;31.95;4.45;;;;;;;9.58;100.00;99333.16;5014884;28;20117;-94
2024/04/07 02:41:13;;;;;;;28.70;4.45;;;;;;;9.64;100.00;99337.88;5015200;28;20033;-94
2024/04/07 02:43:38;;;;;;;27.88;3.88;;;;;;;9.63;100.00;99320.78;5014747;28;20411;-95
2024/04/07 02:48:48;;;;;;;36.60;4.72;;;;;;;9.55;100.00;99328.22;5016091;28;20080;-94
2024/04/07 02:51:13;;;;;;;42.95;6.50;;;;;;;9.56;100.00;99327.28;5014747;28;20388;-93
2024/04/07 02:53:41;;;;;;;29.75;4.03;;;;;;;9.56;100.00;99329.88;5014541;28;20029;-93
2024/04/07 02:56:07;;;;;;;32.35;5.40;;;;;;;9.48;100.00;99312.38;5014626;28;20542;-93
2024/04/07 02:58:32;;;;;;;40.75;7.90;;;;;;;9.55;100.00;99323.06;5014448;28;20101;-94
2024/04/07 03:01:05;;;;;;;44.88;6.95;;;;;;;9.37;100.00;99300.28;5014038;28;20026;-94
2024/04/07 03:03:32;;;;;;;44.88;6.80;;;;;;;9.45;100.00;99315.19;5013889;28;20064;-92
2024/04/07 03:05:58;;;;;;;42.08;5.47;;;;;;;9.46;100.00;99303.97;5013788;28;20113;-93
2024/04/07 03:08:23;;;;;;;32.85;5.18;;;;;;;9.42;100.00;99303.34;5013633;28;20114;-93
2024/04/07 03:10:59;;;;;;;39.15;5.40;;;;;;;9.43;100.00;99310.13;5013714;28;20375;-93
2024/04/07 03:13:25;;;;;;;51.80;7.75;;;;;;;9.32;100.00;99297.22;5013606;28;20033;-94
2024/04/07 03:15:50;;;;;;;33.35;5.47;;;;;;;9.32;100.00;99307.50;5013727;28;20028;-93
2024/04/07 03:18:16;;;;;;;42.55;6.78;;;;;;;9.43;100.00;99315.28;5013482;28;20030;-94
2024/04/07 03:20:42;;;;;;;26.38;4.30;;;;;;;9.38;100.00;99316.53;5013961;28;20068;-93
2024/04/07 03:23:07;;;;;;;32.50;4.45;;;;;;;9.43;100.00;99317.84;5013567;28;20026;-94
2024/04/07 03:25:32;;;;;;;33.70;6.03;;;;;;;9.42;100.00;99328.28;5013584;28;20048;-94
2024/04/07 03:27:58;;;;;;;36.78;6.00;;;;;;;9.45;100.00;99328.06;5013499;28;20105;-94
2024/04/07 03:30:23;;;;;;;24.92;5.60;;;;;;;9.55;100.00;99328.22;5013419;28;20026;-93
2024/04/07 03:32:48;;;;;;;27.42;3.65;;;;;;;9.46;100.00;99329.72;5013220;28;20022;-93
2024/04/07 03:35:14;;;;;;;34.13;5.25;;;;;;;9.33;100.00;99324.59;5013497;28;20026;-93
2024/04/07 03:37:39;;;;;;;28.70;4.40;;;;;;;9.42;100.00;99333.44;5013193;28;20033;-95
2024/04/07 03:40:05;;;;;;;27.10;4.15;;;;;;;9.49;100.00;99337.22;5013305;28;20029;-94
2024/04/07 03:42:31;;;;;;;36.28;4.30;;;;;;;9.48;100.00;99348.44;5013333;28;20021;-94
2024/04/07 03:44:56;;;;;;;36.50;5.57;;;;;;;9.47;100.00;99333.13;5013019;28;20022;-94
2024/04/07 03:47:22;;;;;;;30.80;4.47;;;;;;;9.47;100.00;99346.81;5012280;28;20052;-94
2024/04/07 03:49:47;;;;;;;37.28;5.38;;;;;;;9.47;100.00;99338.25;5013276;28;20056;-96
2024/04/07 03:52:12;;;;;;;31.98;5.53;;;;;;;9.53;100.00;99355.84;5013134;28;20373;-93
2024/04/07 03:54:38;;;;;;;32.20;5.70;;;;;;;9.56;100.00;99368.50;5013136;28;20037;-93
2024/04/07 03:57:03;;;;;;;36.90;7.35;;;;;;;9.52;100.00;99360.19;5012981;28;20026;-94
2024/04/07 03:59:29;;;;;;;38.47;4.82;;;;;;;9.59;100.00;99370.88;5012974;28;20030;-93
2024/04/07 04:01:54;;;;;;;32.63;6.05;;;;;;;9.60;100.00;99341.59;5014031;28;20076;-95
2024/04/07 04:04:19;;;;;;;35.05;5.47;;;;;;;9.62;100.00;99344.91;5012524;28;20026;-94
2024/04/07 04:06:45;;;;;;;39.25;5.35;;;;;;;9.62;100.00;99344.91;5012612;28;20104;-95
2024/04/07 04:09:10;;;;;;;47.92;5.95;;;;;;;9.58;100.00;99338.31;5012647;28;20029;-93
2024/04/07 04:11:36;;;;;;;42.95;5.97;;;;;;;9.59;100.00;99338.22;5013602;28;20499;-93
2024/04/07 04:14:01;;;;;;;32.03;5.55;;;;;;;9.57;100.00;99346.97;5012902;28;20029;-94
2024/04/07 04:16:26;;;;;;;43.17;4.60;;;;;;;9.49;100.00;99339.81;5012427;28;20029;-93
2024/04/07 04:18:55;;;;;;;24.08;4.20;;;;;;;9.53;100.00;99346.38;5012592;28;20022;-94
2024/04/07 04:21:20;;;;;;;46.92;5.80;;;;;;;9.48;100.00;99338.13;5012608;28;20022;-94
2024/04/07 04:23:47;;;;;;;35.92;5.65;;;;;;;9.59;100.00;99352.84;5012579;28;20040;-94
2024/04/07 04:26:12;;;;;;;35.78;5.97;;;;;;;9.67;100.00;99350.53;5012795;28;20085;-94
2024/04/07 04:28:38;;;;;;;36.53;4.38;;;;;;;9.55;100.00;99328.22;5012472;28;20122;-93
2024/04/07 04:31:07;;;;;;;47.15;5.72;;;;;;;9.65;100.00;99354.97;5012233;28;20077;-94
2024/04/07 04:33:33;;;;;;;41.28;5.97;;;;;;;9.61;100.00;99358.72;5012322;28;20022;-92
2024/04/07 04:35:59;;;;;;;38.92;5.88;;;;;;;9.63;100.00;99356.84;5012337;28;20049;-94
2024/04/07 04:38:24;;;;;;;37.28;5.45;;;;;;;9.73;100.00;99363.00;5012646;28;20400;-93
2024/04/07 04:40:57;;;;;;;33.17;4.93;;;;;;;9.85;100.00;99369.00;5012130;28;20037;-93
2024/04/07 04:43:24;;;;;;;41.88;6.25;;;;;;;9.89;100.00;99373.03;5011973;28;20033;-94
2024/04/07 04:46:01;;;;;;;40.35;6.88;;;;;;;9.86;100.00;99358.59;5012084;28;20026;-93
2024/04/07 04:48:26;;;;;;;44.25;7.18;;;;;;;9.94;100.00;99358.06;5012165;28;20160;-94
2024/04/07 04:50:55;;;;;;;34.65;5.75;;;;;;;9.97;100.00;99383.63;5012010;28;20494;-92
2024/04/07 04:53:20;;;;;;;35.40;5.25;;;;;;;9.92;100.00;99361.69;5012091;28;20245;-93
2024/04/07 04:55:46;;;;;;;30.17;4.85;;;;;;;10.03;100.00;99377.19;5011957;28;20169;-93
2024/04/07 04:58:12;;;;;;;43.75;5.43;;;;;;;10.00;100.00;99380.00;5011831;28;20022;-92
2024/04/07 05:00:37;;;;;;;37.65;5.57;;;;;;;9.99;100.00;99375.78;5012141;28;20026;-93
2024/04/07 05:03:02;;;;;;;31.60;5.35;;;;;;;10.07;100.00;99376.03;5012153;28;20056;-95
2024/04/07 05:05:28;;;;;;;37.53;5.65;;;;;;;9.98;100.00;99376.72;5011814;28;20402;-94
2024/04/07 05:07:53;;;;;;;45.00;6.18;;;;;;;10.10;100.00;99400.78;5011549;28;20022;-94
2024/04/07 05:10:19;;;;;;;24.33;4.35;;;;;;;10.12;100.00;99379.13;5012112;28;20033;-95
2024/04/07 05:12:44;;;;;;;39.42;5.57;;;;;;;10.12;100.00;99384.28;5011801;28;20080;-96
2024/04/07 05:15:09;;;;;;;38.92;6.13;;;;;;;10.16;100.00;99379.72;5011552;28;20028;-95
2024/04/07 05:17:35;;;;;;;36.22;5.28;;;;;;;10.12;100.00;99378.28;5011551;28;20379;-94
2024/04/07 05:20:00;;;;;;;34.55;5.10;;;;;;;10.16;100.00;99377.13;5011660;28;20517;-96
2024/04/07 05:22:25;;;;;;;32.05;4.43;;;;;;;10.18;100.00;99370.09;5012077;28;20094;-95
2024/04/07 05:24:51;;;;;;;35.80;5.82;;;;;;;10.15;100.00;99378.91;5011605;28;20507;-96
2024/04/07 05:27:16;;;;;;;38.60;4.93;;;;;;;10.17;100.00;99387.34;5011991;28;20084;-95
2024/04/07 05:29:42;;;;;;;44.10;5.53;;;;;;;10.22;100.00;99385.25;5011654;28;20022;-95
2024/04/07 05:32:07;;;;;;;36.05;7.35;;;;;;;10.21;100.00;99393.91;5011564;28;20365;-96
2024/04/07 05:34:33;;;;;;;40.55;6.57;;;;;;;10.25;100.00;99382.44;5011855;28;20029;-95
2024/04/07 05:37:02;;;;;;;35.67;5.22;;;;;;;10.34;100.00;99399.03;5011288;28;20499;-96
2024/04/07 05:39:28;;;;;;;43.97;6.78;;;;;;;10.24;100.00;99398.84;5011560;28;20101;-95
2024/04/07 05:41:53;;;;;;;39.65;5.95;;;;;;;10.36;100.00;99416.97;5011795;28;20022;-96
2024/04/07 05:44:19;;;;;;;34.83;5.68;;;;;;;10.34;100.00;99411.09;5011429;28;20156;-95
2024/04/07 05:46:44;;;;;;;32.20;4.22;;;;;;;10.39;100.00;99401.28;5011437;28;20117;-96
2024/04/07 05:49:09;;;;;;;29.60;6.43;;;;;;;10.28;100.00;99409.78;5012530;28;20388;-96
2024/04/07 05:51:35;;;;;;;38.20;6.25;;;;;;;10.34;100.00;99403.34;5011666;28;20025;-96
2024/04/07 05:54:00;;;;;;;28.95;4.90;;;;;;;10.40;100.00;99398.56;5012755;28;20030;-94
2024/04/07 05:56:26;;;;;;;33.60;4.80;;;;;;;10.45;100.00;99422.28;5011349;28;20108;-95
2024/04/07 05:58:51;;;;;;;34.78;5.05;;;;;;;10.48;100.00;99410.91;5011523;28;20030;-95
2024/04/07 06:01:17;;;;;;;32.25;4.50;;;;;;;10.51;100.00;99441.66;5011444;28;20033;-94
2024/04/07 06:03:42;;;;;;;39.72;6.72;;;;;;;10.47;100.00;99425.56;5011355;28;20045;-94
2024/04/07 06:06:08;;;;;;;39.70;5.18;;;;;;;10.39;100.00;99411.59;5011711;28;20120;-93
2024/04/07 06:08:33;;;;;;;45.00;6.97;;;;;;;10.47;100.00;99417.84;5011608;28;20034;-94
2024/04/07 06:11:03;;;;;;;33.65;5.72;;;;;;;10.52;100.00;99422.66;5012757;28;20026;-95
2024/04/07 06:13:28;;;;;;;40.72;5.78;;;;;;;10.46;100.00;99423.09;5015229;28;20022;-95
2024/04/07 06:15:54;;;;;;;38.58;7.22;;;;;;;10.49;100.00;99430.63;5014925;28;20076;-94
2024/04/07 06:18:19;;;;;;;27.35;4.57;;;;;;;10.51;100.00;99426.19;5015094;28;20026;-94
2024/04/07 06:20:45;;;;;;;41.65;7.47;;;;;;;10.41;100.00;99435.50;5014856;28;20049;-94
2024/04/07 06:23:10;;;;;;;38.22;5.38;;;;;;;10.45;100.00;99445.50;5014999;28;20476;-94
2024/04/07 06:25:35;;;;;;;33.75;4.53;;;;;;;10.43;100.00;99434.47;5015177;28;20177;-94
2024/04/07 06:28:01;;;;;;;34.55;5.28;;;;;;;10.43;100.00;99436.22;5014468;28;20057;-94
2024/04/07 06:30:26;;;;;;;50.00;6.53;;;;;;;10.42;100.00;99458.63;5015747;28;20026;-95
2024/04/07 06:32:52;;;;;;;44.47;6.45;;;;;;;10.52;100.00;99448.47;5015753;28;20026;-94
2024/04/07 06:35:17;;;;;;;35.97;5.50;;;;;;;10.46;100.00;99454.06;5015322;28;20037;-95
2024/04/07 06:37:43;;;;;;;42.58;6.90;;;;;;;10.46;100.00;99459.22;5015309;28;20092;-94
2024/04/07 06:40:08;;;;;;;38.53;6.28;;;;;;;10.45;100.00;99452.41;5015375;28;20072;-93
2024/04/07 06:42:34;;;;;;;22.42;3.83;;;;;;;10.55;100.00;99471.44;5015453;28;20029;-95
2024/04/07 06:44:59;;;;;;;44.30;5.95;;;;;;;10.54;100.00;99461.25;5015328;28;20057;-95
2024/04/07 06:47:26;;;;;;;22.38;4.57;;;;;;;10.52;100.00;99463.94;5015477;28;20108;-94
2024/04/07 06:49:53;;;;;;;36.05;6.43;;;;;;;10.44;100.00;99479.16;5015124;28;20428;-94
2024/04/07 06:52:21;;;;;;;31.55;5.38;;;;;;;10.46;100.00;99470.38;5015099;28;20416;-95
2024/04/07 06:54:47;;;;;;;43.08;6.63;;;;;;;10.30;100.00;99499.97;5015072;28;20022;-94
2024/04/07 06:57:14;;;;;;;36.00;7.45;;;;;;;10.41;100.00;99497.41;5014548;28;20080;-94
2024/04/07 06:59:40;;;;;;;48.00;6.63;;;;;;;10.40;100.00;99495.78;5014934;28;20026;-95
2024/04/07 07:02:06;;;;;;;39.63;5.70;;;;;;;10.35;100.00;99503.03;5014938;28;20028;-94
2024/04/07 07:04:31;;;;;;;40.33;5.75;;;;;;;10.30;100.00;99520.59;5014292;28;20121;-93
2024/04/07 07:06:57;;;;;;;44.88;7.20;;;;;;;10.24;100.00;99509.75;5014422;28;20032;-94
2024/04/07 07:09:22;;;;;;;41.75;6.68;;;;;;;10.35;100.00;99503.03;5014792;28;20117;-93
2024/04/07 07:11:48;;;;;;;34.45;5.75;;;;;;;10.34;100.00;99511.69;5014593;28;20022;-93
2024/04/07 07:14:13;;;;;;;40.25;5.90;;;;;;;10.46;100.00;99498.75;5014576;28;20030;-94
2024/04/07 07:16:38;;;;;;;46.70;5.65;;;;;;;10.52;100.00;99500.06;5014594;28;20072;-94
2024/04/07 07:19:04;;;;;;;48.42;6.15;;;;;;;10.93;100.00;99509.13;5015032;28;20030;-92
2024/04/07 07:21:30;;;;;;;42.53;7.10;;;;;;;11.60;100.00;99498.03;5014820;28;20528;-94
2024/04/07 07:23:55;;;;;;;33.67;6.60;;;;;;;11.45;100.00;99505.22;5014243;28;20108;-94
2024/04/07 07:26:21;;;;;;;33.85;6.15;;;;;;;11.83;100.00;99504.03;5014664;28;20046;-93
2024/04/07 07:28:47;;;;;;;49.05;6.20;;;;;;;11.68;100.00;99505.19;5014226;28;20029;-94
2024/04/07 07:31:12;;;;;;;34.22;5.25;;;;;;;11.67;100.00;99501.00;5014335;28;20033;-93
2024/04/07 07:33:38;;;;;;;42.40;5.82;;;;;;;11.77;100.00;99486.41;5014591;28;20022;-93
2024/04/07 07:36:03;;;;;;;32.08;6.65;;;;;;;11.78;100.00;99495.81;5014939;28;20388;-94
2024/04/07 07:38:29;;;;;;;40.75;6.00;;;;;;;11.66;100.00;99481.25;5013599;28;20029;-93
2024/04/07 07:40:54;;;;;;;29.45;5.38;;;;;;;12.38;100.00;99494.53;5013273;28;20079;-94
2024/04/07 07:43:20;;;;;;;34.95;5.97;;;;;;;14.28;100.00;99500.28;5013499;28;20022;-94
2024/04/07 07:45:46;;;;;;;31.67;4.72;;;;;;;12.62;100.00;99517.63;5013316;28;20030;-92
2024/04/07 07:48:12;;;;;;;47.25;5.75;;;;;;;12.30;100.00;99516.81;5013053;28;20036;-94
2024/04/07 07:50:41;;;;;;;34.20;5.57;;;;;;;11.94;100.00;99522.16;5012992;28;20411;-92
2024/04/07 07:53:07;;;;;;;41.95;6.30;;;;;;;12.05;100.00;99538.63;5012771;28;20033;-92
2024/04/07 07:55:32;;;;;;;29.85;5.32;;;;;;;11.98;100.00;99523.56;5013808;28;20025;-91
2024/04/07 07:57:57;;;;;;;38.25;6.15;;;;;;;12.14;100.00;99519.75;5013154;28;20052;-93
2024/04/07 08:00:24;;;;;;;35.30;6.38;;;;;;;12.16;100.00;99530.81;5020199;28;20026;-94
2024/04/07 08:02:52;;;;;;;34.40;4.95;;;;;;;12.42;100.00;99506.28;5033169;28;20025;-93
2024/04/07 08:05:20;;;;;;;39.30;5.88;;;;;;;12.88;100.00;99527.66;5038634;28;20040;-95
2024/04/07 08:07:46;;;;;;;44.42;5.50;;;;;;;13.65;100.00;99506.53;5038604;28;20026;-95
2024/04/07 08:10:12;;;;;;;23.95;5.05;;;;;;;14.43;100.00;99503.31;5032750;28;20033;-95
2024/04/07 08:13:01;;;;;;;36.00;5.50;;;;;;;15.57;87.53;99512.88;5034053;28;20025;-96
2024/04/07 08:15:27;;;;;;;28.17;5.68;;;;;;;14.16;100.00;99514.34;5032177;28;20038;-92
2024/04/07 08:17:52;;;;;;;27.25;4.50;;;;;;;13.77;100.00;99524.59;5042581;28;20021;-95
2024/04/07 08:20:27;;;;;;;35.72;7.18;;;;;;;13.19;100.00;99532.88;5039728;28;20073;-96
2024/04/07 08:22:52;;;;;;;39.10;5.50;;;;;;;12.63;100.00;99536.56;5029379;28;20526;-93
2024/04/07 08:25:18;;;;;;;36.08;5.65;;;;;;;12.47;100.00;99557.69;5031793;28;20026;-94
2024/04/07 08:27:43;;;;;;;35.72;6.57;;;;;;;12.33;100.00;99553.59;5030998;28;20119;-94
2024/04/07 08:30:08;;;;;;;40.08;6.10;;;;;;;12.21;100.00;99539.84;5030798;28;20501;-93
2024/04/07 08:32:34;;;;;;;37.90;5.65;;;;;;;12.07;100.00;99552.22;5029687;28;20766;-96
2024/04/07 08:34:59;;;;;;;41.67;7.15;;;;;;;12.22;100.00;99561.41;5027248;28;20025;-94
2024/04/07 08:37:25;;;;;;;26.27;4.75;;;;;;;12.16;100.00;99546.34;5027315;28;20268;-91
2024/04/07 08:39:51;;;;;;;34.28;5.97;;;;;;;12.41;100.00;99558.16;5027921;28;20033;-93
2024/04/07 08:42:19;;;;;;;28.05;4.88;;;;;;;12.18;100.00;99554.81;5028233;28;20025;-93
2024/04/07 08:44:46;;;;;;;31.92;5.18;;;;;;;12.29;100.00;99552.22;5035624;28;20128;-94
2024/04/07 08:47:13;;;;;;;28.70;4.55;;;;;;;12.54;100.00;99539.91;5030513;28;20116;-93
2024/04/07 08:49:40;;;;;;;35.90;6.00;;;;;;;12.25;100.00;99555.97;5030258;28;20029;-94
2024/04/07 08:52:08;;;;;;;28.45;4.82;;;;;;;12.58;100.00;99556.81;5033047;28;20029;-94
2024/04/07 08:54:33;;;;;;;30.58;5.38;;;;;;;12.71;100.00;99557.50;5032979;28;20096;-96
2024/04/07 08:57:07;;;;;;;23.85;5.00;;;;;;;13.45;100.00;99547.13;5032132;28;20017;-94
2024/04/07 08:59:33;;;;;;;30.50;5.88;;;;;;;13.23;100.00;99558.41;5031060;28;20063;-94
2024/04/07 09:02:03;;;;;;;25.20;4.30;;;;;;;13.45;100.00;99556.66;5032172;28;20039;-91
2024/04/07 09:04:32;;;;;;;26.95;5.15;;;;;;;13.58;100.00;99551.28;5032773;28;20053;-94
2024/04/07 09:07:05;;;;;;;23.15;5.15;;;;;;;13.25;100.00;99558.28;5031976;28;20391;-94
2024/04/07 09:09:31;;;;;;;25.50;4.45;;;;;;;12.80;100.00;99556.75;5034034;28;20020;-93
2024/04/07 09:12:25;;;;;;;27.77;5.15;;;;;;;13.39;100.00;99541.66;5035920;28;20056;-96
2024/04/07 09:14:50;;;;;;;27.52;4.63;;;;;;;13.39;100.00;99573.56;5260898;23;20037;-96
2024/04/07 09:19:52;;;;;;;34.08;5.18;;;;;;;13.33;100.00;99565.47;5146561;22;20052;-96
2024/04/07 09:25:53;;;;;;;23.65;4.63;;;;;;;14.06;100.00;99586.97;5524749;22;20024;31
2024/04/07 09:28:18;;;;;;;27.40;5.43;;;;;;;13.74;100.00;99580.16;4992574;28;20050;-96
2024/04/07 09:33:31;;;;;;;25.13;4.47;;;;;;;14.03;100.00;99556.91;4984741;28;20409;-96
2024/04/07 09:36:26;;;;;;;25.00;4.43;;;;;;;14.10;100.00;99576.19;4956997;29;20067;-96
2024/04/07 09:38:51;;;;;;;31.52;4.05;;;;;;;14.31;100.00;99564.91;5059879;23;20062;-95
2024/04/07 09:41:19;;;;;;;29.48;5.35;;;;;;;14.61;100.00;99573.63;4986801;28;20022;-95
2024/04/07 09:43:51;;;;;;;30.27;4.05;;;;;;;15.20;100.00;99555.25;4979734;28;20027;-93
2024/04/07 09:46:21;;;;;;;29.48;4.82;;;;;;;16.13;100.00;99568.38;4989342;28;20033;-94
2024/04/07 09:48:54;;;;;;;30.25;4.93;;;;;;;17.06;93.31;99549.91;4978270;28;20117;-93
2024/04/07 09:51:21;;;;;;;22.55;4.03;;;;;;;18.53;75.86;99555.00;4977237;28;20062;-96
2024/04/07 09:54:11;;;;;;;25.40;5.13;;;;;;;17.63;81.49;99549.44;4967009;28;20083;-93
2024/04/07 09:56:38;;;;;;;32.45;5.22;;;;;;;16.56;90.38;99571.28;4969396;28;20430;-94
2024/04/07 09:59:13;;;;;;;31.13;4.47;;;;;;;16.02;95.28;99578.97;4976478;28;20030;-96
2024/04/07 10:01:39;;;;;;;28.35;4.45;;;;;;;16.05;95.12;99566.50;4986198;28;20030;-93
2024/04/07 10:04:06;;;;;;;22.52;3.72;;;;;;;15.69;93.52;99577.72;4975121;28;20018;-94
2024/04/07 10:06:31;;;;;;;19.25;4.22;;;;;;;16.07;94.98;99565.53;4970256;28;20106;-88
2024/04/07 10:08:58;;;;;;;29.38;4.43;;;;;;;15.91;92.11;99566.97;4973176;28;20576;-86
2024/04/07 10:11:24;;;;;;;26.33;4.10;;;;;;;15.27;94.98;99568.53;4973545;28;20031;-87
2024/04/07 10:13:49;;;;;;;24.25;3.95;;;;;;;14.95;100.00;99574.84;4970756;28;20033;-87
2024/04/07 10:16:15;;;;;;;34.95;5.15;;;;;;;14.68;100.00;99562.53;4966324;28;20031;-88
2024/04/07 10:18:46;;;;;;;23.27;3.85;;;;;;;14.81;100.00;99572.66;4972950;28;20034;-88
2024/04/07 10:21:12;;;;;;;24.10;3.78;;;;;;;14.85;100.00;99568.84;4972533;28;20027;-90
2024/04/07 10:23:40;;;;;;;20.95;5.07;;;;;;;14.54;100.00;99561.16;4973107;28;20041;-88
2024/04/07 10:26:07;;;;;;;26.25;4.30;;;;;;;14.19;100.00;99587.56;4967568;28;20031;-88
2024/04/07 10:28:50;;;;;;;22.27;4.32;;;;;;;14.29;100.00;99583.22;4969272;28;20042;-88
2024/04/07 10:31:32;;;;;;;20.48;4.00;;;;;;;14.66;100.00;99567.06;4972352;28;20031;-88
2024/04/07 10:33:57;;;;;;;;;;;;;;;15.17;98.67;99572.94;4972312;28;20034;-88
2024/04/07 10:36:25;;;;;;;21.10;3.70;;;;;;;15.73;94.03;99590.34;4970214;28;19924;-88
2024/04/07 10:38:57;;;;;;;16.65;3.70;;;;;;;16.73;88.39;99585.28;4972181;28;20039;-87
2024/04/07 10:41:25;;;;;;;23.95;4.40;;;;;;;17.06;84.28;99589.84;4971862;28;20098;-88
2024/04/07 10:43:51;;;;;;;17.73;3.60;;;;;;;16.48;85.59;99588.47;4972004;28;20035;-88
2024/04/07 10:46:17;;;;;;;26.33;4.30;;;;;;;16.74;83.86;99579.91;4976950;28;20034;-88
2024/04/07 10:48:43;;;;;;;26.02;4.65;;;;;;;16.08;84.32;99578.41;4989363;28;20053;-88
2024/04/07 10:51:09;;;;;;;29.67;4.88;;;;;;;16.16;84.67;99593.31;4987543;28;20069;-88
2024/04/07 10:53:36;;;;;;;23.38;3.75;;;;;;;16.29;87.24;99585.16;4990787;28;20026;-87
2024/04/07 10:56:02;;;;;;;18.27;3.45;;;;;;;16.27;85.98;99604.34;4969638;28;20023;-87
2024/04/07 10:58:27;;;;;;;23.50;4.32;;;;;;;15.97;83.90;99597.66;4971670;28;20026;-89
2024/04/07 11:00:53;;;;;;;23.65;3.35;;;;;;;15.63;87.75;99579.13;4971504;28;20073;-90
2024/04/07 11:03:18;;;;;;;31.40;4.65;;;;;;;15.58;87.33;99579.53;4969834;28;20490;-89
2024/04/07 11:05:44;;;;;;;27.02;4.10;;;;;;;15.81;88.13;99589.63;4970250;28;20034;-90
2024/04/07 11:08:10;;;;;;;19.02;3.92;;;;;;;15.96;85.98;99580.38;4978677;28;20492;-89
2024/04/07 11:10:39;;;;;;;35.03;4.88;;;;;;;16.54;83.83;99583.66;4978542;28;20030;-88
2024/04/07 11:13:06;;;;;;;34.35;5.35;;;;;;;16.39;81.33;99572.91;4972694;28;20065;-88
2024/04/07 11:15:32;;;;;;;33.42;5.45;;;;;;;17.08;78.83;99574.88;5002351;28;20023;-88
2024/04/07 11:18:12;;;;;;;27.25;4.10;;;;;;;17.16;76.62;99558.47;4965596;28;20030;-89
2024/04/07 11:20:37;;;;;;;25.10;3.83;;;;;;;16.81;77.43;99588.00;4973723;28;20073;-89
2024/04/07 11:23:03;;;;;;;28.38;3.95;;;;;;;16.41;79.53;99587.44;4971741;28;20027;-89
2024/04/07 11:25:28;;;;;;;28.00;4.57;;;;;;;16.29;84.70;99585.16;4969562;28;20050;-89
2024/04/07 11:27:55;;;;;;;22.35;3.65;;;;;;;15.62;87.13;99577.47;4978006;28;20041;-89
2024/04/07 11:30:21;;;;;;;22.58;4.00;;;;;;;15.63;88.10;99594.72;4991769;28;20026;-88
2024/04/07 11:32:51;;;;;;;27.23;4.38;;;;;;;15.53;87.37;99586.94;4974348;28;20031;-89
2024/04/07 11:35:17;;;;;;;25.10;6.83;;;;;;;15.51;87.79;99611.44;4965269;28;20106;-88
2024/04/07 11:37:44;;;;;;;26.35;4.13;;;;;;;15.57;88.42;99590.91;4970031;28;20113;-89
2024/04/07 11:40:10;;;;;;;27.58;5.13;;;;;;;16.08;83.80;99594.03;4973616;28;20088;-93
2024/04/07 11:42:38;;;;;;;26.35;5.55;;;;;;;16.86;79.44;99580.56;4973677;28;20118;-96
2024/04/07 11:45:04;;;;;;;22.75;4.35;;;;;;;17.26;74.33;99584.44;4982949;28;20031;-94
2024/04/07 11:47:29;;;;;;;18.50;4.18;;;;;;;17.95;72.90;99595.81;4972645;28;20033;-94